Cape May, New Jersey
Current Conditions -  °F | °C
As of 5:35 PM on Wednesday 22 Oct 2014 (Local Time) from KWWD Reporting Station
Overcast Overcast  
Wind Chill: 54°   Ceiling: 1900
Heat Index: 54°   Visibility: 10mi
Dew Point: 48°   Wind: 13mph
Humidity: 82%   Direction: 340°NNW
Pressure: 29.78"   Gusts: 22mph
Location:  38.94°N, 74.91°W
Report Text: KWWD 222135Z AUTO 34011G19KT 10SM SCT013 OVC019 12/09 A2978 RMK AO1 P0001
Loading
Personal Weather Stations






























Interactive Weather Map New forecast layout! Learn more

10-Day Weather Forecast

Advertisements
Track Severe Weather on mobile